createdAt,value
2018-03-16T00:02:15.185Z,8.00
2018-03-16T00:04:42.723Z,8.00
2018-03-16T00:07:11.087Z,8.00
2018-03-16T00:09:39.398Z,8.00
2018-03-16T00:12:06.912Z,8.00
2018-03-16T00:14:35.207Z,7.90
2018-03-16T00:17:02.756Z,7.90
2018-03-16T00:19:31.073Z,7.90
2018-03-16T00:21:58.602Z,7.90
2018-03-16T00:24:26.918Z,7.90
2018-03-16T00:26:54.455Z,7.90
2018-03-16T00:29:22.021Z,7.80
2018-03-16T00:31:49.569Z,7.80
2018-03-16T00:34:17.098Z,7.80
2018-03-16T00:36:45.387Z,7.80
2018-03-16T00:39:13.686Z,7.80
2018-03-16T00:41:41.218Z,7.80
2018-03-16T00:44:09.528Z,7.80
2018-03-16T00:46:37.086Z,7.70
2018-03-16T00:49:04.618Z,7.80
2018-03-16T00:51:32.927Z,7.70
2018-03-16T00:54:00.470Z,7.70
2018-03-16T00:56:28.010Z,7.60
2018-03-16T00:58:56.310Z,7.50
2018-03-16T01:01:23.878Z,7.50
2018-03-16T01:03:51.403Z,7.40
2018-03-16T01:06:19.698Z,7.30
2018-03-16T01:08:47.255Z,7.30
2018-03-16T01:11:14.793Z,7.20
2018-03-16T01:13:43.085Z,7.20
2018-03-16T01:16:11.406Z,7.20
2018-03-16T01:18:38.924Z,7.20
2018-03-16T01:21:07.206Z,7.20
2018-03-16T01:23:34.772Z,7.10
2018-03-16T01:26:02.308Z,7.10
2018-03-16T01:28:30.625Z,7.10
2018-03-16T01:30:58.188Z,7.10
2018-03-16T01:33:25.726Z,7.10
2018-03-16T01:35:53.249Z,7.10
2018-03-16T01:38:20.793Z,7.10
2018-03-16T01:40:48.341Z,7.00
2018-03-16T01:43:15.879Z,7.00
2018-03-16T01:45:43.489Z,7.00
2018-03-16T01:48:11.013Z,7.00
2018-03-16T01:50:38.551Z,7.00
2018-03-16T01:53:16.081Z,7.00
2018-03-16T01:55:43.615Z,6.90
2018-03-16T01:58:11.160Z,6.90
2018-03-16T02:00:38.735Z,6.90
2018-03-16T02:03:06.276Z,6.90
2018-03-16T02:05:33.798Z,6.80
2018-03-16T02:08:01.351Z,6.80
2018-03-16T02:10:28.864Z,6.80
2018-03-16T02:12:56.417Z,6.80
2018-03-16T02:15:23.971Z,6.80
2018-03-16T02:17:51.492Z,6.80
2018-03-16T02:20:19.026Z,6.80
2018-03-16T02:22:46.590Z,6.80
2018-03-16T02:25:14.118Z,6.80
2018-03-16T02:27:41.649Z,6.70
2018-03-16T02:30:09.952Z,6.70
2018-03-16T02:32:37.498Z,6.70
2018-03-16T02:35:05.031Z,6.70
2018-03-16T02:37:33.336Z,6.60
2018-03-16T02:40:00.866Z,6.60
2018-03-16T02:42:29.176Z,6.70
2018-03-16T02:44:56.730Z,6.70
2018-03-16T02:47:24.262Z,6.60
2018-03-16T02:49:51.791Z,6.70
2018-03-16T02:52:19.356Z,6.70
2018-03-16T02:54:46.888Z,6.60
2018-03-16T02:57:14.424Z,6.60
2018-03-16T02:59:41.970Z,6.60
2018-03-16T03:02:10.257Z,6.60
2018-03-16T03:04:37.794Z,6.60
2018-03-16T03:07:06.120Z,6.50
2018-03-16T03:09:33.651Z,6.50
2018-03-16T03:12:01.187Z,6.60
2018-03-16T03:14:29.524Z,6.60
2018-03-16T03:16:57.044Z,6.60
2018-03-16T03:19:24.583Z,6.60
2018-03-16T03:21:52.910Z,6.50
2018-03-16T03:24:20.452Z,6.50
2018-03-16T03:26:48.001Z,6.50
2018-03-16T03:29:15.548Z,6.50
2018-03-16T03:31:43.832Z,6.50
2018-03-16T03:34:11.374Z,6.50
2018-03-16T03:36:39.716Z,6.50
2018-03-16T03:39:07.254Z,6.50
2018-03-16T03:41:34.773Z,6.50
2018-03-16T03:44:03.076Z,6.30
2018-03-16T03:46:30.628Z,6.30
2018-03-16T03:48:58.173Z,6.20
2018-03-16T03:51:26.491Z,6.20
2018-03-16T03:53:54.020Z,6.20
2018-03-16T03:56:21.554Z,6.20
2018-03-16T03:58:49.889Z,6.20
2018-03-16T04:01:17.402Z,6.10
2018-03-16T04:03:45.695Z,6.00
2018-03-16T04:06:13.232Z,6.00
2018-03-16T04:08:41.522Z,5.90
2018-03-16T04:11:09.823Z,5.90
2018-03-16T04:13:37.379Z,5.80
2018-03-16T04:16:04.924Z,5.90
2018-03-16T04:18:32.458Z,5.80
2018-03-16T04:21:00.766Z,5.80
2018-03-16T04:23:28.308Z,5.70
2018-03-16T04:25:56.657Z,5.70
2018-03-16T04:28:24.955Z,5.80
2018-03-16T04:30:53.251Z,5.80
2018-03-16T04:33:20.769Z,5.80
2018-03-16T04:35:49.828Z,5.70
2018-03-16T04:38:17.358Z,5.80
2018-03-16T04:40:45.632Z,5.80
2018-03-16T04:43:13.179Z,5.70
2018-03-16T04:45:41.492Z,5.70
2018-03-16T04:48:09.008Z,5.70
2018-03-16T04:50:37.335Z,5.70
2018-03-16T04:53:04.864Z,5.70
2018-03-16T04:55:32.395Z,5.70
2018-03-16T04:57:59.940Z,5.60
2018-03-16T05:00:27.452Z,5.60
2018-03-16T05:02:55.005Z,5.60
2018-03-16T05:05:22.544Z,5.50
2018-03-16T05:07:50.854Z,5.60
2018-03-16T05:10:18.399Z,5.60
2018-03-16T05:12:45.956Z,5.60
2018-03-16T05:15:13.472Z,5.60
2018-03-16T05:17:41.024Z,5.60
2018-03-16T05:20:08.596Z,5.50
2018-03-16T05:22:36.126Z,5.50
2018-03-16T05:25:03.644Z,5.40
2018-03-16T05:27:31.999Z,5.40
2018-03-16T05:30:00.300Z,5.50
2018-03-16T05:32:28.586Z,5.50
2018-03-16T05:34:56.235Z,5.50
2018-03-16T05:37:24.531Z,5.50
2018-03-16T05:39:52.059Z,5.50
2018-03-16T05:42:20.374Z,5.50
2018-03-16T05:44:47.904Z,5.50
2018-03-16T05:47:16.197Z,5.50
2018-03-16T05:49:43.732Z,5.40
2018-03-16T05:52:12.035Z,5.40
2018-03-16T05:54:39.571Z,5.40
2018-03-16T05:57:07.908Z,5.30
2018-03-16T05:59:35.455Z,5.30
2018-03-16T06:02:02.969Z,5.30
2018-03-16T06:04:31.279Z,5.40
2018-03-16T06:06:58.795Z,5.40
2018-03-16T06:09:26.326Z,5.30
2018-03-16T06:11:53.874Z,5.40
2018-03-16T06:14:21.391Z,5.50
2018-03-16T06:16:49.697Z,5.50
2018-03-16T06:19:17.263Z,5.50
2018-03-16T06:21:50.713Z,5.50
2018-03-16T06:24:19.012Z,5.60
2018-03-16T06:26:46.525Z,5.50
2018-03-16T06:29:14.064Z,5.50
2018-03-16T06:31:41.617Z,5.60
2018-03-16T06:34:09.152Z,5.60
2018-03-16T06:36:36.689Z,5.60
2018-03-16T06:39:05.014Z,5.60
2018-03-16T06:41:32.553Z,5.60
2018-03-16T06:44:00.099Z,5.50
2018-03-16T06:46:27.662Z,5.50
2018-03-16T06:48:55.200Z,5.50
2018-03-16T06:51:23.495Z,5.40
2018-03-16T06:53:51.038Z,5.40
2018-03-16T06:56:19.334Z,5.40
2018-03-16T06:58:46.879Z,5.40
2018-03-16T07:01:15.216Z,5.40
2018-03-16T07:03:42.745Z,5.40
2018-03-16T07:06:10.261Z,5.30
2018-03-16T07:08:38.606Z,5.50
2018-03-16T07:11:06.124Z,5.40
2018-03-16T07:13:33.648Z,5.50
2018-03-16T07:16:01.194Z,5.40
2018-03-16T07:18:28.745Z,5.50
2018-03-16T07:20:56.290Z,5.40
2018-03-16T07:23:23.842Z,5.40
2018-03-16T07:25:51.367Z,5.50
2018-03-16T07:28:19.666Z,5.40
2018-03-16T07:30:47.235Z,5.40
2018-03-16T07:33:14.772Z,5.40
2018-03-16T07:35:42.304Z,5.60
2018-03-16T07:38:10.620Z,5.60
2018-03-16T07:40:38.142Z,5.60
2018-03-16T07:43:06.449Z,5.50
2018-03-16T07:45:39.646Z,5.50
2018-03-16T07:48:07.160Z,5.50
2018-03-16T07:50:34.693Z,5.50
2018-03-16T07:53:02.252Z,5.70
2018-03-16T07:55:29.769Z,5.70
2018-03-16T07:57:57.280Z,5.90
2018-03-16T08:00:24.830Z,5.90
2018-03-16T08:02:52.359Z,5.80
2018-03-16T08:05:19.900Z,5.70
2018-03-16T08:07:48.208Z,5.60
2018-03-16T08:10:15.738Z,5.60
2018-03-16T08:12:43.266Z,5.60
2018-03-16T08:15:10.872Z,5.50
2018-03-16T08:17:39.160Z,5.50
2018-03-16T08:20:06.709Z,5.50
2018-03-16T08:22:34.252Z,5.50
2018-03-16T08:25:02.529Z,5.50
2018-03-16T08:27:30.045Z,5.50
2018-03-16T08:29:57.595Z,5.40
2018-03-16T08:32:25.134Z,5.50
2018-03-16T08:34:52.691Z,5.50
2018-03-16T08:37:20.266Z,5.50
2018-03-16T08:39:47.819Z,5.50
2018-03-16T08:42:15.901Z,5.60
2018-03-16T08:44:43.971Z,5.60
2018-03-16T08:47:11.485Z,5.60
2018-03-16T08:49:39.768Z,5.70
2018-03-16T08:52:08.072Z,5.70
2018-03-16T08:54:35.612Z,5.70
2018-03-16T08:57:03.181Z,5.80
2018-03-16T08:59:30.763Z,5.90
2018-03-16T09:01:58.276Z,5.90
2018-03-16T09:04:26.577Z,5.90
2018-03-16T09:06:54.152Z,5.90
2018-03-16T09:09:21.706Z,5.90
2018-03-16T09:11:49.243Z,5.80
2018-03-16T09:14:16.812Z,5.80
2018-03-16T09:16:44.333Z,5.70
2018-03-16T09:19:12.630Z,5.80
2018-03-16T09:21:40.185Z,5.80
2018-03-16T09:24:07.737Z,5.90
2018-03-16T09:26:36.050Z,5.90
2018-03-16T09:29:03.603Z,5.90
2018-03-16T09:31:31.134Z,5.90
2018-03-16T09:33:59.416Z,5.90
2018-03-16T09:36:27.744Z,5.90
2018-03-16T09:38:55.277Z,5.90
2018-03-16T09:41:22.792Z,5.90
2018-03-16T09:43:50.357Z,5.90
2018-03-16T09:46:18.705Z,5.80
2018-03-16T09:48:46.242Z,5.80
2018-03-16T09:51:13.819Z,5.90
2018-03-16T09:53:41.355Z,6.00
2018-03-16T09:56:08.891Z,6.00
2018-03-16T09:58:37.200Z,6.00
2018-03-16T10:01:04.717Z,6.00
2018-03-16T10:03:33.015Z,5.90
2018-03-16T10:06:00.572Z,5.90
2018-03-16T10:08:28.129Z,5.90
2018-03-16T10:10:55.669Z,5.90
2018-03-16T10:13:23.980Z,5.90
2018-03-16T10:15:51.525Z,5.90
2018-03-16T10:18:19.058Z,6.00
2018-03-16T10:20:47.407Z,6.10
2018-03-16T10:23:14.948Z,6.10
2018-03-16T10:25:42.466Z,6.20
2018-03-16T10:28:10.787Z,6.10
2018-03-16T10:30:38.331Z,6.10
2018-03-16T10:33:05.893Z,6.10
2018-03-16T10:35:33.446Z,6.10
2018-03-16T10:38:00.993Z,6.10
2018-03-16T10:40:28.549Z,6.00
2018-03-16T10:42:56.116Z,6.00
2018-03-16T10:45:24.416Z,6.00
2018-03-16T10:47:51.942Z,6.00
2018-03-16T10:50:19.494Z,6.00
2018-03-16T10:52:47.811Z,5.90
2018-03-16T10:55:15.324Z,5.90
2018-03-16T10:57:43.632Z,5.90
2018-03-16T11:00:11.172Z,5.90
2018-03-16T11:02:45.102Z,6.00
2018-03-16T11:05:18.620Z,5.90
2018-03-16T11:08:05.029Z,5.90
2018-03-16T11:10:32.559Z,6.00
2018-03-16T11:13:00.109Z,5.90
2018-03-16T11:15:27.640Z,5.90
2018-03-16T11:17:55.157Z,5.90
2018-03-16T11:20:22.707Z,5.90
2018-03-16T11:22:50.239Z,6.00
2018-03-16T11:25:17.799Z,6.00
2018-03-16T11:27:46.123Z,5.90
2018-03-16T11:30:13.659Z,5.90
2018-03-16T11:32:41.187Z,5.80
2018-03-16T11:35:09.501Z,5.80
2018-03-16T11:37:37.030Z,5.80
2018-03-16T11:40:05.443Z,5.90
2018-03-16T11:42:32.991Z,5.90
2018-03-16T11:45:00.522Z,5.90
2018-03-16T11:47:28.837Z,5.90
2018-03-16T11:49:56.373Z,5.90
2018-03-16T11:52:23.891Z,5.90
2018-03-16T11:54:51.415Z,5.80
2018-03-16T11:57:19.746Z,5.90
2018-03-16T11:59:48.040Z,5.90
2018-03-16T12:02:15.576Z,5.90
2018-03-16T12:04:43.884Z,6.00
2018-03-16T12:07:11.418Z,5.90
2018-03-16T12:09:39.722Z,6.00
2018-03-16T12:12:07.256Z,6.00
2018-03-16T12:14:35.550Z,6.00
2018-03-16T12:17:03.079Z,5.90
2018-03-16T12:19:30.612Z,5.90
2018-03-16T12:21:58.139Z,5.90
2018-03-16T12:24:25.696Z,6.00
2018-03-16T12:26:53.242Z,6.00
2018-03-16T12:29:20.767Z,5.90
2018-03-16T12:31:48.300Z,6.10
2018-03-16T12:34:15.901Z,6.00
2018-03-16T12:36:43.467Z,6.00
2018-03-16T12:39:11.805Z,5.90
2018-03-16T12:41:39.344Z,5.90
2018-03-16T12:44:06.882Z,5.70
2018-03-16T12:46:34.450Z,5.70
2018-03-16T12:49:01.988Z,5.80
2018-03-16T12:51:29.555Z,5.80
2018-03-16T12:53:57.131Z,5.90
2018-03-16T12:56:24.657Z,5.90
2018-03-16T12:58:53.020Z,5.80
2018-03-16T13:01:21.342Z,5.80
2018-03-16T13:03:48.874Z,5.80
2018-03-16T13:06:16.479Z,5.70
2018-03-16T13:08:44.047Z,5.60
2018-03-16T13:11:11.606Z,5.60
2018-03-16T13:13:39.164Z,5.60
2018-03-16T13:16:07.555Z,5.60
2018-03-16T13:18:35.090Z,5.50
2018-03-16T13:21:02.629Z,5.50
2018-03-16T13:23:30.191Z,5.60
2018-03-16T13:25:57.730Z,5.50
2018-03-16T13:28:26.038Z,5.60
2018-03-16T13:30:53.606Z,5.60
2018-03-16T13:33:21.156Z,5.60
2018-03-16T13:35:48.713Z,5.70
2018-03-16T13:38:16.279Z,5.70
2018-03-16T13:40:43.833Z,5.60
2018-03-16T13:43:11.381Z,5.50
2018-03-16T13:45:38.921Z,5.50
2018-03-16T13:48:07.219Z,5.50
2018-03-16T13:50:34.745Z,5.50
2018-03-16T13:53:02.317Z,5.50
2018-03-16T13:55:30.606Z,5.60
2018-03-16T13:57:58.140Z,5.60
2018-03-16T14:00:25.691Z,5.60
2018-03-16T14:02:53.230Z,5.60
2018-03-16T14:05:20.793Z,5.60
2018-03-16T14:07:48.353Z,5.60
2018-03-16T14:10:15.927Z,5.50
2018-03-16T14:12:43.476Z,5.50
2018-03-16T14:15:11.031Z,5.40
2018-03-16T14:17:38.557Z,5.40
2018-03-16T14:20:06.102Z,5.40
2018-03-16T14:22:33.649Z,5.30
2018-03-16T14:25:01.186Z,5.40
2018-03-16T14:27:28.701Z,5.30
2018-03-16T14:29:56.256Z,5.20
2018-03-16T14:32:23.851Z,5.10
2018-03-16T14:34:51.393Z,5.10
2018-03-16T14:37:18.943Z,5.10
2018-03-16T14:39:46.481Z,5.10
2018-03-16T14:42:14.056Z,5.10
2018-03-16T14:44:41.581Z,5.20
2018-03-16T14:47:09.869Z,5.20
2018-03-16T14:49:37.428Z,5.20
2018-03-16T14:52:04.976Z,5.20
2018-03-16T14:54:32.538Z,5.20
2018-03-16T14:57:00.089Z,5.20
2018-03-16T14:59:28.414Z,5.10
2018-03-16T15:01:55.951Z,5.10
2018-03-16T15:04:23.475Z,5.20
2018-03-16T15:06:51.792Z,5.30
2018-03-16T15:09:19.334Z,5.20
2018-03-16T15:11:46.881Z,5.30
2018-03-16T15:14:15.199Z,5.20
2018-03-16T15:16:42.731Z,5.20
2018-03-16T15:19:10.277Z,5.20
2018-03-16T15:21:38.639Z,5.20
2018-03-16T15:24:06.131Z,5.20
2018-03-16T15:26:33.673Z,5.10
2018-03-16T15:29:01.221Z,5.10
2018-03-16T15:31:29.510Z,5.00
2018-03-16T15:33:57.789Z,4.90
2018-03-16T15:36:25.363Z,4.90
2018-03-16T15:38:52.906Z,5.00
2018-03-16T15:41:20.439Z,4.80
2018-03-16T15:43:47.983Z,4.80
2018-03-16T15:46:15.521Z,4.80
2018-03-16T15:48:43.048Z,4.80
2018-03-16T15:51:10.603Z,4.80
2018-03-16T15:53:38.144Z,4.80
2018-03-16T15:56:06.428Z,4.70
2018-03-16T15:58:34.747Z,4.70
2018-03-16T16:01:02.280Z,4.70
2018-03-16T16:03:29.828Z,4.60
2018-03-16T16:05:58.148Z,4.60
2018-03-16T16:08:25.687Z,4.60
2018-03-16T16:10:53.226Z,4.60
2018-03-16T16:13:21.555Z,4.40
2018-03-16T16:15:49.106Z,4.40
2018-03-16T16:18:16.650Z,4.30
2018-03-16T16:20:44.201Z,4.20
2018-03-16T16:23:11.742Z,4.20
2018-03-16T16:25:39.266Z,4.20
2018-03-16T16:28:06.818Z,4.20
2018-03-16T16:30:34.364Z,4.20
2018-03-16T16:33:01.949Z,4.30
2018-03-16T16:35:29.490Z,4.20
2018-03-16T16:37:57.024Z,4.30
2018-03-16T16:40:24.576Z,4.40
2018-03-16T16:42:52.135Z,4.40
2018-03-16T16:45:19.683Z,4.20
2018-03-16T16:47:47.295Z,4.30
2018-03-16T16:50:14.830Z,4.20
2018-03-16T16:52:42.355Z,4.30
2018-03-16T16:55:09.974Z,4.20
2018-03-16T16:57:37.559Z,4.10
2018-03-16T17:00:05.884Z,4.10
2018-03-16T17:02:33.437Z,4.10
2018-03-16T17:05:00.987Z,4.20
2018-03-16T17:07:28.521Z,4.20
2018-03-16T17:09:56.824Z,4.20
2018-03-16T17:12:24.390Z,4.20
2018-03-16T17:14:51.905Z,4.20
2018-03-16T17:17:20.230Z,4.20
2018-03-16T17:19:47.775Z,4.10
2018-03-16T17:22:15.330Z,4.20
2018-03-16T17:24:42.862Z,4.10
2018-03-16T17:27:11.161Z,3.90
2018-03-16T17:29:38.672Z,3.90
2018-03-16T17:32:06.197Z,3.90
2018-03-16T17:34:33.768Z,3.80
2018-03-16T17:37:01.300Z,3.90
2018-03-16T17:39:28.844Z,3.90
2018-03-16T17:41:57.171Z,3.70
2018-03-16T17:44:24.710Z,3.60
2018-03-16T17:46:52.247Z,3.70
2018-03-16T17:49:19.810Z,3.70
2018-03-16T17:51:47.356Z,3.50
2018-03-16T17:54:15.637Z,3.60
2018-03-16T17:56:43.939Z,3.50
2018-03-16T17:59:11.488Z,3.50
2018-03-16T18:01:39.047Z,3.40
2018-03-16T18:04:06.598Z,3.40
2018-03-16T18:06:34.109Z,3.40
2018-03-16T18:09:01.657Z,3.60
2018-03-16T18:11:29.203Z,3.60
2018-03-16T18:13:56.744Z,3.70
2018-03-16T18:16:24.281Z,3.60
2018-03-16T18:18:52.583Z,3.60
2018-03-16T18:21:20.129Z,3.60
2018-03-16T18:23:47.777Z,3.60
2018-03-16T18:26:16.057Z,3.50
2018-03-16T18:28:44.390Z,3.40
2018-03-16T18:31:11.919Z,3.40
2018-03-16T18:33:39.467Z,3.50
2018-03-16T18:36:06.991Z,3.40
2018-03-16T18:38:34.553Z,3.40
2018-03-16T18:41:02.862Z,3.50
2018-03-16T18:43:30.417Z,3.50
2018-03-16T18:45:57.957Z,3.60
2018-03-16T18:48:26.272Z,3.60
2018-03-16T18:50:53.803Z,3.60
2018-03-16T18:53:21.383Z,3.60
2018-03-16T18:55:48.904Z,3.60
2018-03-16T18:58:17.185Z,3.50
2018-03-16T19:00:45.501Z,3.60
2018-03-16T19:03:13.053Z,3.60
2018-03-16T19:05:40.577Z,3.60
2018-03-16T19:08:08.902Z,3.40
2018-03-16T19:10:36.452Z,3.40
2018-03-16T19:13:03.975Z,3.40
2018-03-16T19:15:32.296Z,3.50
2018-03-16T19:17:59.825Z,3.50
2018-03-16T19:20:27.370Z,3.70
2018-03-16T19:22:55.903Z,3.40
2018-03-16T19:25:23.434Z,3.50
2018-03-16T19:27:50.991Z,3.50
2018-03-16T19:30:18.554Z,3.50
2018-03-16T19:32:46.107Z,3.60
2018-03-16T19:35:13.652Z,3.40
2018-03-16T19:37:41.956Z,3.60
2018-03-16T19:40:09.513Z,3.60
2018-03-16T19:42:37.053Z,3.70
2018-03-16T19:45:05.379Z,3.50
2018-03-16T19:47:32.910Z,3.50
2018-03-16T19:50:00.430Z,3.50
2018-03-16T19:52:28.012Z,3.50
2018-03-16T19:54:55.556Z,3.40
2018-03-16T19:57:23.870Z,3.30
2018-03-16T19:59:51.426Z,3.30
2018-03-16T20:02:18.955Z,3.40
2018-03-16T20:04:46.506Z,3.30
2018-03-16T20:07:14.118Z,3.40
2018-03-16T20:09:41.690Z,3.40
2018-03-16T20:12:09.325Z,3.30
2018-03-16T20:14:37.629Z,3.30
2018-03-16T20:17:05.481Z,3.30
2018-03-16T20:19:33.024Z,3.20
2018-03-16T20:22:01.335Z,3.30
2018-03-16T20:24:28.925Z,3.20
2018-03-16T20:26:56.472Z,3.30
2018-03-16T20:29:24.019Z,3.30
2018-03-16T20:31:51.587Z,3.30
2018-03-16T20:34:19.114Z,3.30
2018-03-16T20:36:46.677Z,3.40
2018-03-16T20:39:14.210Z,3.30
2018-03-16T20:41:42.508Z,3.20
2018-03-16T20:44:10.063Z,3.20
2018-03-16T20:46:37.617Z,3.30
2018-03-16T20:49:05.151Z,3.30
2018-03-16T20:51:32.697Z,3.40
2018-03-16T20:54:00.223Z,3.40
2018-03-16T20:56:27.736Z,3.30
2018-03-16T20:58:56.041Z,3.20
2018-03-16T21:01:23.585Z,3.20
2018-03-16T21:03:51.123Z,3.10
2018-03-16T21:06:18.708Z,3.20
2018-03-16T21:08:47.007Z,3.30
2018-03-16T21:11:14.535Z,3.30
2018-03-16T21:13:42.869Z,3.30
2018-03-16T21:16:10.402Z,3.30
2018-03-16T21:18:37.953Z,3.10
2018-03-16T21:21:05.488Z,3.20
2018-03-16T21:23:33.783Z,3.00
2018-03-16T21:26:01.326Z,3.10
2018-03-16T21:28:35.623Z,3.00
2018-03-16T21:31:03.933Z,2.90
2018-03-16T21:33:31.478Z,2.90
2018-03-16T21:35:59.787Z,3.00
2018-03-16T21:38:27.319Z,3.00
2018-03-16T21:40:55.634Z,3.00
2018-03-16T21:43:23.147Z,3.00
2018-03-16T21:45:51.481Z,2.90
2018-03-16T21:48:19.039Z,2.90
2018-03-16T21:53:37.906Z,2.90
2018-03-16T21:56:05.469Z,2.90
2018-03-16T21:58:33.009Z,3.00
2018-03-16T22:01:00.798Z,2.80
2018-03-16T22:03:28.334Z,2.80
2018-03-16T22:05:55.897Z,2.80
2018-03-16T22:08:23.441Z,2.60
2018-03-16T22:10:51.060Z,2.70
2018-03-16T22:13:18.585Z,2.70
2018-03-16T22:15:46.237Z,2.60
2018-03-16T22:18:13.757Z,2.60
2018-03-16T22:20:42.082Z,2.70
2018-03-16T22:23:09.731Z,2.60
2018-03-16T22:25:37.270Z,2.70
2018-03-16T22:28:04.805Z,2.50
2018-03-16T22:30:33.102Z,2.50
2018-03-16T22:33:00.641Z,2.50
2018-03-16T22:35:28.925Z,2.60
2018-03-16T22:37:57.234Z,2.50
2018-03-16T22:40:24.756Z,2.50
2018-03-16T22:42:53.066Z,2.40
2018-03-16T22:45:20.585Z,2.40
2018-03-16T22:47:48.887Z,2.50
2018-03-16T22:50:16.408Z,2.50
2018-03-16T22:52:43.941Z,2.40
2018-03-16T22:55:11.460Z,2.60
2018-03-16T22:57:38.994Z,2.80
2018-03-16T23:00:07.425Z,2.90
2018-03-16T23:02:34.967Z,2.70
2018-03-16T23:05:02.613Z,2.70
2018-03-16T23:07:30.219Z,2.70
2018-03-16T23:09:57.762Z,2.70
2018-03-16T23:12:25.330Z,2.80
2018-03-16T23:14:53.671Z,2.90
2018-03-16T23:17:21.475Z,2.80
2018-03-16T23:19:48.994Z,2.70
2018-03-16T23:22:16.541Z,2.80
2018-03-16T23:24:44.900Z,2.80
2018-03-16T23:27:12.468Z,2.60
2018-03-16T23:29:39.998Z,2.60
2018-03-16T23:32:07.540Z,2.60
2018-03-16T23:34:35.088Z,2.70
2018-03-16T23:37:02.642Z,2.60
2018-03-16T23:39:30.155Z,2.70
2018-03-16T23:41:57.686Z,2.70
2018-03-16T23:44:25.278Z,2.70
2018-03-16T23:46:52.814Z,2.70
2018-03-16T23:49:22.865Z,2.60
2018-03-16T23:51:50.396Z,2.60
2018-03-16T23:54:17.929Z,2.40
2018-03-16T23:56:45.482Z,2.30
2018-03-16T23:59:14.018Z,2.40
